createdAt,value
2022-10-03T00:02:20.467Z,11.00
2022-10-03T00:05:19.574Z,11.10
2022-10-03T00:08:08.424Z,11.10
2022-10-03T00:10:49.176Z,11.00
2022-10-03T00:13:25.501Z,11.10
2022-10-03T00:16:09.054Z,11.00
2022-10-03T00:18:48.196Z,11.00
2022-10-03T00:21:26.237Z,11.00
2022-10-03T00:24:04.369Z,11.10
2022-10-03T00:26:42.403Z,11.00
2022-10-03T00:29:36.863Z,11.00
2022-10-03T00:32:22.421Z,11.00
2022-10-03T00:35:06.925Z,11.00
2022-10-03T00:37:38.767Z,11.00
2022-10-03T00:40:37.628Z,11.00
2022-10-03T00:43:35.653Z,11.00
2022-10-03T00:46:45.525Z,10.90
2022-10-03T00:49:57.762Z,10.90
2022-10-03T00:52:46.308Z,10.90
2022-10-03T00:55:22.617Z,10.90
2022-10-03T00:58:02.156Z,10.90
2022-10-03T01:00:31.858Z,10.90
2022-10-03T01:03:20.450Z,10.90
2022-10-03T01:06:06.078Z,10.90
2022-10-03T01:09:06.891Z,10.90
2022-10-03T01:11:45.114Z,10.90
2022-10-03T01:14:28.215Z,10.80
2022-10-03T01:17:06.909Z,10.80
2022-10-03T01:19:58.881Z,10.80
2022-10-03T01:23:07.181Z,10.80
2022-10-03T01:25:41.910Z,10.70
2022-10-03T01:28:50.063Z,10.70
2022-10-03T01:31:22.908Z,10.70
2022-10-03T01:33:58.317Z,10.70
2022-10-03T01:36:33.545Z,10.70
2022-10-03T01:39:10.168Z,10.70
2022-10-03T01:41:48.317Z,10.70
2022-10-03T01:44:24.974Z,10.70
2022-10-03T01:46:59.847Z,10.70
2022-10-03T01:49:34.996Z,10.70
2022-10-03T01:52:10.928Z,10.70
2022-10-03T01:54:44.654Z,10.70
2022-10-03T01:57:21.621Z,10.70
2022-10-03T01:59:59.317Z,10.70
2022-10-03T02:02:34.522Z,10.70
2022-10-03T02:05:09.420Z,10.70
2022-10-03T02:07:46.468Z,10.70
2022-10-03T02:10:25.527Z,10.70
2022-10-03T02:13:05.263Z,10.80
2022-10-03T02:15:47.240Z,10.70
2022-10-03T02:18:19.617Z,10.80
2022-10-03T02:20:52.254Z,10.70
2022-10-03T02:23:39.340Z,10.70
2022-10-03T02:26:31.129Z,10.80
2022-10-03T02:29:20.652Z,10.80
2022-10-03T02:32:18.918Z,10.80
2022-10-03T02:35:10.506Z,10.70
2022-10-03T02:37:58.708Z,10.70
2022-10-03T02:40:53.831Z,10.70
2022-10-03T02:43:56.404Z,10.70
2022-10-03T02:47:01.825Z,10.70
2022-10-03T02:49:59.184Z,10.60
2022-10-03T02:53:05.349Z,10.70
2022-10-03T02:56:11.818Z,10.70
2022-10-03T02:59:17.304Z,10.70
2022-10-03T03:02:01.878Z,10.70
2022-10-03T03:05:08.609Z,10.70
2022-10-03T03:08:17.363Z,10.70
2022-10-03T03:11:10.530Z,10.70
2022-10-03T03:14:09.534Z,10.70
2022-10-03T03:17:21.726Z,10.70
2022-10-03T03:20:11.995Z,10.70
2022-10-03T03:22:58.314Z,10.70
2022-10-03T03:25:49.068Z,10.80
2022-10-03T03:28:28.678Z,10.70
2022-10-03T03:31:07.035Z,10.80
2022-10-03T03:33:46.056Z,10.70
2022-10-03T03:36:25.864Z,10.70
2022-10-03T03:39:03.933Z,10.70
2022-10-03T03:41:46.096Z,10.70
2022-10-03T03:44:41.083Z,10.70
2022-10-03T03:47:31.350Z,10.70
2022-10-03T03:50:15.960Z,10.70
2022-10-03T03:53:00.517Z,10.70
2022-10-03T03:55:50.929Z,10.80
2022-10-03T03:58:36.311Z,10.70
2022-10-03T04:01:39.950Z,10.80
2022-10-03T04:04:20.673Z,10.80
2022-10-03T04:06:58.426Z,10.80
2022-10-03T04:10:00.654Z,10.80
2022-10-03T04:12:49.233Z,10.80
2022-10-03T04:15:40.466Z,10.70
2022-10-03T04:18:43.833Z,10.80
2022-10-03T04:21:50.590Z,10.80
2022-10-03T04:24:43.847Z,10.80
2022-10-03T04:27:42.708Z,10.80
2022-10-03T04:30:15.060Z,10.80
2022-10-03T04:33:09.261Z,10.80
2022-10-03T04:35:57.984Z,10.70
2022-10-03T04:38:43.088Z,10.70
2022-10-03T04:41:23.374Z,10.80
2022-10-03T04:44:00.284Z,10.80
2022-10-03T04:46:34.350Z,10.70
2022-10-03T04:49:13.128Z,10.80
2022-10-03T04:51:55.738Z,10.80
2022-10-03T04:54:30.988Z,10.80
2022-10-03T04:57:07.196Z,10.80
2022-10-03T04:59:46.308Z,10.70
2022-10-03T05:02:33.849Z,10.80
2022-10-03T05:05:37.062Z,10.80
2022-10-03T05:08:15.545Z,10.80
2022-10-03T05:10:56.834Z,10.80
2022-10-03T05:13:44.897Z,10.80
2022-10-03T05:16:24.744Z,10.80
2022-10-03T05:18:57.877Z,10.80
2022-10-03T05:21:36.559Z,10.80
2022-10-03T05:24:20.554Z,10.80
2022-10-03T05:26:58.938Z,10.80
2022-10-03T05:29:39.420Z,10.80
2022-10-03T05:32:20.968Z,10.80
2022-10-03T05:35:04.434Z,10.80
2022-10-03T05:37:49.085Z,10.80
2022-10-03T05:40:21.800Z,10.80
2022-10-03T05:43:03.691Z,10.80
2022-10-03T05:45:44.686Z,10.80
2022-10-03T05:48:26.209Z,10.80
2022-10-03T05:51:23.414Z,10.80
2022-10-03T05:54:17.522Z,10.80
2022-10-03T05:57:16.945Z,10.80
2022-10-03T06:00:09.683Z,10.80
2022-10-03T06:03:03.884Z,10.80
2022-10-03T06:05:38.014Z,10.80
2022-10-03T06:08:44.342Z,10.90
2022-10-03T06:11:22.678Z,10.90
2022-10-03T06:14:13.895Z,10.90
2022-10-03T06:16:50.421Z,10.90
2022-10-03T06:19:33.649Z,10.90
2022-10-03T06:22:49.207Z,10.90
2022-10-03T06:25:49.956Z,10.90
2022-10-03T06:28:42.582Z,11.00
2022-10-03T06:31:53.153Z,11.00
2022-10-03T06:34:50.568Z,11.20
2022-10-03T06:37:49.313Z,11.30
2022-10-03T06:40:47.471Z,11.40
2022-10-03T06:43:41.376Z,11.60
2022-10-03T06:46:35.197Z,11.60
2022-10-03T06:49:37.087Z,11.60
2022-10-03T06:52:32.093Z,11.60
2022-10-03T06:55:45.020Z,11.60
2022-10-03T06:58:48.869Z,11.50
2022-10-03T07:02:00.985Z,11.50
2022-10-03T07:08:12.030Z,11.50
2022-10-03T07:10:55.682Z,11.50
2022-10-03T07:13:48.243Z,11.40
2022-10-03T07:16:50.197Z,11.40
2022-10-03T07:19:39.854Z,11.40
2022-10-03T07:22:55.001Z,11.40
2022-10-03T07:25:58.281Z,11.30
2022-10-03T07:28:54.218Z,11.30
2022-10-03T07:31:37.680Z,11.30
2022-10-03T07:34:33.630Z,11.30
2022-10-03T07:37:40.362Z,11.30
2022-10-03T07:40:25.992Z,11.20
2022-10-03T07:43:26.466Z,11.20
2022-10-03T07:46:39.261Z,11.20
2022-10-03T07:49:23.602Z,11.30
2022-10-03T07:52:10.705Z,11.30
2022-10-03T07:55:11.332Z,11.30
2022-10-03T07:58:15.429Z,11.30
2022-10-03T08:01:04.944Z,11.30
2022-10-03T08:04:32.831Z,11.30
2022-10-03T08:07:12.706Z,11.30
2022-10-03T08:09:59.353Z,11.30
2022-10-03T08:13:02.443Z,11.30
2022-10-03T08:15:41.355Z,11.30
2022-10-03T08:18:43.333Z,11.30
2022-10-03T08:21:18.741Z,11.40
2022-10-03T08:24:19.769Z,11.40
2022-10-03T08:27:09.921Z,11.40
2022-10-03T08:30:19.553Z,11.40
2022-10-03T08:33:18.970Z,11.40
2022-10-03T08:36:29.821Z,11.40
2022-10-03T08:39:11.151Z,11.50
2022-10-03T08:42:09.655Z,11.50
2022-10-03T08:45:19.685Z,11.50
2022-10-03T08:48:38.208Z,11.60
2022-10-03T08:51:50.430Z,11.60
2022-10-03T08:54:52.932Z,11.60
2022-10-03T08:57:37.673Z,11.80
2022-10-03T09:00:18.872Z,11.90
2022-10-03T09:03:43.384Z,12.00
2022-10-03T09:07:16.070Z,12.00
2022-10-03T09:10:14.295Z,12.10
2022-10-03T09:13:09.474Z,12.10
2022-10-03T09:16:20.775Z,12.30
2022-10-03T09:19:06.807Z,12.30
2022-10-03T09:21:57.830Z,12.30
2022-10-03T09:25:18.357Z,12.20
2022-10-03T09:28:31.247Z,12.10
2022-10-03T09:31:14.076Z,12.10
2022-10-03T09:34:24.028Z,12.20
2022-10-03T09:37:21.222Z,12.30
2022-10-03T09:40:39.428Z,12.50
2022-10-03T09:43:38.553Z,12.50
2022-10-03T09:46:37.058Z,12.50
2022-10-03T09:49:48.589Z,12.40
2022-10-03T09:52:35.608Z,12.40
2022-10-03T09:55:19.241Z,12.40
2022-10-03T09:58:05.653Z,12.30
2022-10-03T10:00:51.996Z,12.30
2022-10-03T10:04:11.512Z,12.20
2022-10-03T10:07:05.081Z,12.20
2022-10-03T10:09:58.069Z,12.20
2022-10-03T10:13:00.551Z,12.20
2022-10-03T10:16:08.454Z,12.10
2022-10-03T10:19:20.284Z,12.00
2022-10-03T10:22:13.006Z,12.00
2022-10-03T10:25:24.828Z,12.00
2022-10-03T10:28:25.368Z,12.00
2022-10-03T10:31:25.849Z,12.00
2022-10-03T10:34:35.151Z,11.90
2022-10-03T10:37:54.446Z,11.90
2022-10-03T10:41:07.989Z,11.90
2022-10-03T10:44:05.702Z,12.00
2022-10-03T10:47:06.539Z,12.00
2022-10-03T10:50:19.730Z,12.00
2022-10-03T10:53:37.493Z,11.90
2022-10-03T10:56:39.408Z,11.90
2022-10-03T10:59:49.124Z,11.90
2022-10-03T11:02:54.264Z,11.90
2022-10-03T11:05:49.229Z,11.90
2022-10-03T11:08:59.870Z,12.00
2022-10-03T11:12:28.564Z,12.00
2022-10-03T11:15:36.319Z,12.00
2022-10-03T11:18:43.736Z,12.00
2022-10-03T11:21:51.268Z,12.00
2022-10-03T11:24:51.979Z,12.00
2022-10-03T11:28:09.052Z,12.00
2022-10-03T11:31:08.108Z,11.90
2022-10-03T11:34:09.585Z,11.90
2022-10-03T11:37:08.274Z,11.90
2022-10-03T11:39:45.973Z,11.90
2022-10-03T11:42:27.769Z,11.90
2022-10-03T11:44:59.966Z,11.90
2022-10-03T11:47:55.075Z,11.90
2022-10-03T11:50:40.910Z,11.90
2022-10-03T11:53:41.861Z,11.90
2022-10-03T11:56:39.224Z,12.00
2022-10-03T11:59:43.507Z,12.00
2022-10-03T12:02:17.986Z,12.00
2022-10-03T12:04:59.321Z,12.10
2022-10-03T12:08:00.713Z,12.10
2022-10-03T12:10:39.424Z,12.10
2022-10-03T12:13:15.028Z,12.10
2022-10-03T12:15:46.837Z,12.10
2022-10-03T12:18:22.341Z,12.10
2022-10-03T12:21:21.763Z,12.10
2022-10-03T12:24:08.062Z,12.20
2022-10-03T12:26:49.288Z,12.10
2022-10-03T12:29:21.738Z,12.20
2022-10-03T12:32:10.907Z,12.30
2022-10-03T12:34:42.139Z,12.30
2022-10-03T12:37:37.841Z,12.30
2022-10-03T12:40:13.154Z,12.40
2022-10-03T12:42:49.634Z,12.40
2022-10-03T12:45:30.916Z,12.50
2022-10-03T12:48:16.285Z,12.60
2022-10-03T12:50:48.761Z,12.50
2022-10-03T12:53:32.529Z,12.60
2022-10-03T12:56:08.043Z,12.60
2022-10-03T12:58:48.909Z,12.60
2022-10-03T13:01:26.032Z,12.50
2022-10-03T13:03:56.214Z,12.50
2022-10-03T13:07:03.809Z,12.50
2022-10-03T13:10:05.790Z,12.50
2022-10-03T13:12:43.762Z,12.50
2022-10-03T13:15:49.578Z,12.60
2022-10-03T13:18:46.012Z,12.70
2022-10-03T13:21:45.396Z,12.70
2022-10-03T13:24:16.629Z,12.80
2022-10-03T13:26:55.036Z,12.80
2022-10-03T13:29:30.037Z,12.90
2022-10-03T13:32:12.104Z,13.00
2022-10-03T13:34:55.046Z,13.00
2022-10-03T13:37:31.480Z,13.00
2022-10-03T13:40:05.875Z,13.00
2022-10-03T13:42:40.182Z,13.00
2022-10-03T13:45:15.054Z,13.00
2022-10-03T13:47:52.002Z,13.00
2022-10-03T13:50:27.544Z,13.00
2022-10-03T13:53:01.187Z,13.00
2022-10-03T13:55:39.679Z,13.00
2022-10-03T13:58:32.582Z,13.00
2022-10-03T14:01:23.405Z,13.00
2022-10-03T14:04:09.713Z,13.00
2022-10-03T14:06:43.251Z,12.90
2022-10-03T14:09:32.589Z,13.00
2022-10-03T14:12:13.081Z,13.00
2022-10-03T14:15:21.889Z,13.00
2022-10-03T14:17:56.900Z,13.00
2022-10-03T14:20:31.442Z,13.00
2022-10-03T14:23:23.236Z,13.10
2022-10-03T14:26:00.127Z,13.20
2022-10-03T14:28:32.655Z,13.20
2022-10-03T14:31:11.583Z,13.30
2022-10-03T14:33:47.427Z,13.40
2022-10-03T14:36:30.869Z,13.40
2022-10-03T14:39:22.085Z,13.50
2022-10-03T14:42:24.732Z,13.50
2022-10-03T14:44:58.428Z,13.50
2022-10-03T14:47:37.195Z,13.50
2022-10-03T14:50:08.538Z,13.40
2022-10-03T14:52:42.865Z,13.40
2022-10-03T14:55:17.687Z,13.40
2022-10-03T14:58:09.889Z,13.40
2022-10-03T15:00:43.754Z,13.30
2022-10-03T15:03:28.571Z,13.20
2022-10-03T15:06:01.961Z,13.20
2022-10-03T15:08:37.803Z,13.20
2022-10-03T15:11:07.620Z,13.20
2022-10-03T15:13:40.329Z,13.20
2022-10-03T15:16:11.232Z,13.20
2022-10-03T15:18:53.613Z,13.20
2022-10-03T15:21:22.899Z,13.20
2022-10-03T15:23:56.707Z,13.20
2022-10-03T15:26:26.984Z,13.20
2022-10-03T15:29:00.677Z,13.20
2022-10-03T15:31:35.759Z,13.10
2022-10-03T15:34:10.109Z,13.10
2022-10-03T15:36:42.065Z,13.10
2022-10-03T15:39:21.056Z,13.10
2022-10-03T15:41:54.226Z,13.00
2022-10-03T15:44:32.831Z,13.00
2022-10-03T15:47:05.427Z,13.00
2022-10-03T15:49:41.244Z,12.90
2022-10-03T15:52:18.305Z,12.90
2022-10-03T15:55:06.734Z,12.90
2022-10-03T15:57:45.652Z,12.80
2022-10-03T16:00:24.657Z,12.80
2022-10-03T16:02:59.814Z,12.80
2022-10-03T16:05:30.869Z,12.80
2022-10-03T16:08:05.225Z,12.70
2022-10-03T16:10:39.609Z,12.70
2022-10-03T16:13:21.336Z,12.70
2022-10-03T16:16:11.778Z,12.60
2022-10-03T16:18:48.297Z,12.60
2022-10-03T16:21:42.366Z,12.60
2022-10-03T16:24:25.436Z,12.50
2022-10-03T16:26:57.137Z,12.50
2022-10-03T16:29:31.593Z,12.50
2022-10-03T16:32:06.228Z,12.50
2022-10-03T16:34:37.035Z,12.50
2022-10-03T16:37:17.912Z,12.50
2022-10-03T16:39:56.533Z,12.40
2022-10-03T16:42:28.886Z,12.40
2022-10-03T16:45:01.528Z,12.40
2022-10-03T16:47:36.663Z,12.30
2022-10-03T16:50:25.239Z,12.30
2022-10-03T16:52:58.625Z,12.30
2022-10-03T16:55:31.452Z,12.30
2022-10-03T16:58:05.945Z,12.20
2022-10-03T17:00:42.940Z,12.20
2022-10-03T17:03:19.922Z,12.20
2022-10-03T17:05:50.069Z,12.10
2022-10-03T17:08:41.317Z,12.10
2022-10-03T17:11:16.550Z,12.00
2022-10-03T17:13:48.393Z,12.00
2022-10-03T17:16:23.452Z,12.00
2022-10-03T17:19:08.878Z,12.00
2022-10-03T17:21:42.108Z,11.90
2022-10-03T17:24:15.129Z,11.90
2022-10-03T17:26:45.762Z,11.90
2022-10-03T17:29:18.871Z,11.90
2022-10-03T17:31:53.490Z,11.80
2022-10-03T17:34:24.885Z,11.90
2022-10-03T17:37:22.131Z,11.80
2022-10-03T17:39:56.444Z,11.80
2022-10-03T17:42:39.838Z,11.80
2022-10-03T17:45:27.244Z,11.80
2022-10-03T17:47:59.112Z,11.70
2022-10-03T17:50:32.194Z,11.70
2022-10-03T17:53:02.599Z,11.70
2022-10-03T17:55:37.831Z,11.60
2022-10-03T17:58:10.683Z,11.60
2022-10-03T18:01:03.065Z,11.60
2022-10-03T18:03:35.970Z,11.60
2022-10-03T18:06:48.013Z,11.60
2022-10-03T18:09:32.543Z,11.60
2022-10-03T18:12:17.094Z,11.60
2022-10-03T18:15:20.926Z,11.60
2022-10-03T18:18:01.377Z,11.60
2022-10-03T18:20:43.970Z,11.60
2022-10-03T18:23:36.815Z,11.50
2022-10-03T18:26:19.936Z,11.50
2022-10-03T18:29:02.048Z,11.50
2022-10-03T18:31:34.989Z,11.50
2022-10-03T18:34:11.540Z,11.50
2022-10-03T18:36:47.054Z,11.50
2022-10-03T18:39:18.305Z,11.50
2022-10-03T18:41:50.388Z,11.50
2022-10-03T18:44:22.935Z,11.50
2022-10-03T18:46:56.697Z,11.50
2022-10-03T18:49:33.931Z,11.50
2022-10-03T18:52:10.718Z,11.50
2022-10-03T18:54:52.468Z,11.60
2022-10-03T18:57:25.049Z,11.60
2022-10-03T19:00:01.509Z,11.50
2022-10-03T19:02:36.961Z,11.50
2022-10-03T19:05:20.734Z,11.40
2022-10-03T19:07:56.057Z,11.40
2022-10-03T19:10:38.282Z,11.30
2022-10-03T19:13:17.609Z,11.30
2022-10-03T19:16:10.053Z,11.30
2022-10-03T19:18:43.395Z,11.30
2022-10-03T19:21:18.725Z,11.30
2022-10-03T19:23:51.198Z,11.30
2022-10-03T19:26:26.637Z,11.30
2022-10-03T19:29:01.733Z,11.30
2022-10-03T19:31:36.798Z,11.30
2022-10-03T19:34:07.718Z,11.30
2022-10-03T19:36:38.833Z,11.30
2022-10-03T19:39:14.432Z,11.30
2022-10-03T19:41:51.682Z,11.30
2022-10-03T19:44:23.616Z,11.30
2022-10-03T19:47:05.243Z,11.30
2022-10-03T19:49:54.374Z,11.30
2022-10-03T19:52:30.831Z,11.30
2022-10-03T19:55:05.449Z,11.30
2022-10-03T19:57:43.588Z,11.30
2022-10-03T20:00:24.565Z,11.30
2022-10-03T20:03:13.216Z,11.30
2022-10-03T20:05:48.446Z,11.30
2022-10-03T20:08:23.585Z,11.30
2022-10-03T20:11:17.595Z,11.20
2022-10-03T20:13:50.855Z,11.20
2022-10-03T20:16:22.550Z,11.20
2022-10-03T20:18:56.075Z,11.20
2022-10-03T20:21:27.760Z,11.20
2022-10-03T20:23:56.748Z,11.20
2022-10-03T20:26:33.662Z,11.20
2022-10-03T20:29:21.813Z,11.20
2022-10-03T20:31:51.997Z,11.20
2022-10-03T20:34:25.057Z,11.20
2022-10-03T20:37:02.451Z,11.10
2022-10-03T20:39:34.788Z,11.10
2022-10-03T20:42:10.722Z,11.10
2022-10-03T20:45:00.010Z,11.10
2022-10-03T20:47:49.146Z,11.10
2022-10-03T20:50:25.474Z,11.10
2022-10-03T20:53:00.189Z,11.10
2022-10-03T20:55:31.890Z,11.10
2022-10-03T20:58:11.296Z,11.10
2022-10-03T21:00:46.851Z,11.10
2022-10-03T21:03:23.158Z,11.10
2022-10-03T21:05:55.168Z,11.10
2022-10-03T21:08:26.904Z,11.10
2022-10-03T21:10:59.186Z,11.10
2022-10-03T21:13:33.553Z,11.10
2022-10-03T21:16:03.838Z,11.10
2022-10-03T21:18:34.896Z,11.10
2022-10-03T21:21:09.789Z,11.10
2022-10-03T21:23:50.486Z,11.10
2022-10-03T21:26:24.908Z,11.10
2022-10-03T21:29:16.599Z,11.10
2022-10-03T21:31:51.067Z,11.10
2022-10-03T21:34:24.245Z,11.00
2022-10-03T21:37:10.053Z,11.00
2022-10-03T21:39:46.272Z,11.00
2022-10-03T21:42:22.472Z,11.00
2022-10-03T21:45:10.266Z,11.00
2022-10-03T21:47:48.541Z,11.00
2022-10-03T21:50:21.584Z,11.00
2022-10-03T21:53:11.198Z,10.90
2022-10-03T21:55:53.003Z,10.90
2022-10-03T21:58:45.322Z,10.90
2022-10-03T22:01:18.337Z,10.90
2022-10-03T22:03:52.283Z,10.90
2022-10-03T22:06:28.589Z,10.90
2022-10-03T22:09:03.962Z,10.90
2022-10-03T22:11:43.165Z,10.90
2022-10-03T22:14:19.002Z,10.90
2022-10-03T22:16:56.085Z,10.90
2022-10-03T22:19:34.006Z,10.90
2022-10-03T22:22:17.230Z,10.90
2022-10-03T22:25:01.314Z,10.90
2022-10-03T22:27:37.777Z,10.90
2022-10-03T22:30:09.492Z,10.90
2022-10-03T22:32:45.115Z,11.00
2022-10-03T22:35:36.839Z,11.00
2022-10-03T22:38:05.416Z,11.00
2022-10-03T22:40:35.954Z,11.00
2022-10-03T22:43:07.199Z,10.90
2022-10-03T22:45:40.077Z,10.90
2022-10-03T22:48:13.145Z,10.90
2022-10-03T22:50:43.339Z,10.90
2022-10-03T22:53:14.374Z,10.90
2022-10-03T22:55:48.859Z,10.90
2022-10-03T22:58:17.609Z,10.90
2022-10-03T23:00:48.542Z,10.90
2022-10-03T23:03:20.438Z,10.90
2022-10-03T23:06:05.040Z,10.90
2022-10-03T23:08:45.845Z,10.90
2022-10-03T23:11:21.560Z,10.90
2022-10-03T23:13:50.624Z,10.90
2022-10-03T23:16:35.371Z,10.90
2022-10-03T23:19:14.488Z,10.90
2022-10-03T23:21:49.690Z,10.90
2022-10-03T23:24:25.177Z,10.90
2022-10-03T23:27:24.152Z,10.90
2022-10-03T23:30:53.991Z,10.90
2022-10-03T23:33:53.549Z,10.90
2022-10-03T23:36:25.226Z,10.90
2022-10-03T23:39:01.256Z,10.90
2022-10-03T23:41:57.461Z,10.90
2022-10-03T23:44:48.365Z,10.90
2022-10-03T23:47:20.778Z,10.90
2022-10-03T23:49:52.541Z,10.90
2022-10-03T23:52:26.034Z,10.90
2022-10-03T23:54:57.030Z,10.80
2022-10-03T23:57:30.599Z,10.80
